sensor_id;sensor_type;location;lat;lon;timestamp;P1;durP1;ratioP1;P2;durP2;ratioP2
49824;SDS011;35714;55.708;37.478;2022-08-19T00:00:01;6.13;;;3.00;;
49824;SDS011;35714;55.708;37.478;2022-08-19T00:02:30;6.40;;;3.58;;
49824;SDS011;35714;55.708;37.478;2022-08-19T00:04:55;7.40;;;3.25;;
49824;SDS011;35714;55.708;37.478;2022-08-19T00:07:21;5.32;;;2.15;;
49824;SDS011;35714;55.708;37.478;2022-08-19T00:09:47;5.25;;;2.65;;
49824;SDS011;35714;55.708;37.478;2022-08-19T00:12:12;6.07;;;2.92;;
49824;SDS011;35714;55.708;37.478;2022-08-19T00:14:38;8.27;;;2.78;;
49824;SDS011;35714;55.708;37.478;2022-08-19T00:17:04;8.57;;;3.05;;
49824;SDS011;35714;55.708;37.478;2022-08-19T00:19:32;6.70;;;2.50;;
49824;SDS011;35714;55.708;37.478;2022-08-19T00:21:58;5.45;;;2.42;;
49824;SDS011;35714;55.708;37.478;2022-08-19T00:24:23;4.25;;;2.50;;
49824;SDS011;35714;55.708;37.478;2022-08-19T00:26:49;4.75;;;2.50;;
49824;SDS011;35714;55.708;37.478;2022-08-19T00:29:16;4.47;;;2.20;;
49824;SDS011;35714;55.708;37.478;2022-08-19T00:31:42;6.72;;;2.78;;
49824;SDS011;35714;55.708;37.478;2022-08-19T00:34:08;5.72;;;2.70;;
49824;SDS011;35714;55.708;37.478;2022-08-19T00:36:34;6.05;;;2.70;;
49824;SDS011;35714;55.708;37.478;2022-08-19T00:39:00;8.38;;;2.75;;
49824;SDS011;35714;55.708;37.478;2022-08-19T00:41:25;6.53;;;2.83;;
49824;SDS011;35714;55.708;37.478;2022-08-19T00:46:26;4.38;;;2.60;;
49824;SDS011;35714;55.708;37.478;2022-08-19T00:48:52;7.78;;;2.83;;
49824;SDS011;35714;55.708;37.478;2022-08-19T00:51:17;7.00;;;2.67;;
49824;SDS011;35714;55.708;37.478;2022-08-19T00:53:43;9.38;;;3.10;;
49824;SDS011;35714;55.708;37.478;2022-08-19T00:56:08;6.50;;;2.90;;
49824;SDS011;35714;55.708;37.478;2022-08-19T00:58:34;10.60;;;3.25;;
49824;SDS011;35714;55.708;37.478;2022-08-19T01:01:00;6.15;;;3.15;;
49824;SDS011;35714;55.708;37.478;2022-08-19T01:03:26;6.45;;;2.75;;
49824;SDS011;35714;55.708;37.478;2022-08-19T01:05:52;6.45;;;2.90;;
49824;SDS011;35714;55.708;37.478;2022-08-19T01:08:19;5.68;;;3.03;;
49824;SDS011;35714;55.708;37.478;2022-08-19T01:10:47;7.32;;;2.70;;
49824;SDS011;35714;55.708;37.478;2022-08-19T01:13:16;8.32;;;2.70;;
49824;SDS011;35714;55.708;37.478;2022-08-19T01:15:46;10.43;;;3.47;;
49824;SDS011;35714;55.708;37.478;2022-08-19T01:18:14;8.02;;;3.33;;
49824;SDS011;35714;55.708;37.478;2022-08-19T01:20:41;7.45;;;3.10;;
49824;SDS011;35714;55.708;37.478;2022-08-19T01:23:07;8.05;;;3.20;;
49824;SDS011;35714;55.708;37.478;2022-08-19T01:25:51;6.35;;;3.53;;
49824;SDS011;35714;55.708;37.478;2022-08-19T01:28:19;8.68;;;3.97;;
49824;SDS011;35714;55.708;37.478;2022-08-19T01:30:45;7.05;;;3.53;;
49824;SDS011;35714;55.708;37.478;2022-08-19T01:33:11;10.40;;;3.85;;
49824;SDS011;35714;55.708;37.478;2022-08-19T01:35:37;8.25;;;3.45;;
49824;SDS011;35714;55.708;37.478;2022-08-19T01:38:04;9.85;;;3.22;;
49824;SDS011;35714;55.708;37.478;2022-08-19T01:40:33;8.18;;;3.25;;
49824;SDS011;35714;55.708;37.478;2022-08-19T01:43:00;7.75;;;3.17;;
49824;SDS011;35714;55.708;37.478;2022-08-19T01:45:27;7.40;;;3.33;;
49824;SDS011;35714;55.708;37.478;2022-08-19T01:47:53;13.00;;;3.05;;
49824;SDS011;35714;55.708;37.478;2022-08-19T01:50:19;6.53;;;3.38;;
49824;SDS011;35714;55.708;37.478;2022-08-19T01:52:44;10.07;;;3.42;;
49824;SDS011;35714;55.708;37.478;2022-08-19T01:55:11;6.85;;;3.47;;
49824;SDS011;35714;55.708;37.478;2022-08-19T01:57:38;9.30;;;3.05;;
49824;SDS011;35714;55.708;37.478;2022-08-19T02:00:05;8.23;;;3.40;;
49824;SDS011;35714;55.708;37.478;2022-08-19T02:02:37;8.52;;;3.20;;
49824;SDS011;35714;55.708;37.478;2022-08-19T02:05:03;7.88;;;3.00;;
49824;SDS011;35714;55.708;37.478;2022-08-19T02:07:29;12.68;;;3.13;;
49824;SDS011;35714;55.708;37.478;2022-08-19T02:09:54;5.50;;;3.03;;
49824;SDS011;35714;55.708;37.478;2022-08-19T02:12:20;6.18;;;2.78;;
49824;SDS011;35714;55.708;37.478;2022-08-19T02:14:46;5.72;;;2.85;;
49824;SDS011;35714;55.708;37.478;2022-08-19T02:17:12;5.72;;;2.92;;
49824;SDS011;35714;55.708;37.478;2022-08-19T02:19:37;9.25;;;3.40;;
49824;SDS011;35714;55.708;37.478;2022-08-19T02:22:03;7.65;;;2.72;;
49824;SDS011;35714;55.708;37.478;2022-08-19T02:24:29;9.45;;;3.28;;
49824;SDS011;35714;55.708;37.478;2022-08-19T02:26:54;7.95;;;3.28;;
49824;SDS011;35714;55.708;37.478;2022-08-19T02:29:20;11.43;;;3.83;;
49824;SDS011;35714;55.708;37.478;2022-08-19T02:31:45;9.90;;;3.65;;
49824;SDS011;35714;55.708;37.478;2022-08-19T02:34:11;5.78;;;3.33;;
49824;SDS011;35714;55.708;37.478;2022-08-19T02:36:37;7.18;;;3.67;;
49824;SDS011;35714;55.708;37.478;2022-08-19T02:39:02;10.32;;;4.00;;
49824;SDS011;35714;55.708;37.478;2022-08-19T02:41:31;13.30;;;4.30;;
49824;SDS011;35714;55.708;37.478;2022-08-19T02:43:57;13.30;;;4.00;;
49824;SDS011;35714;55.708;37.478;2022-08-19T02:46:27;6.22;;;3.30;;
49824;SDS011;35714;55.708;37.478;2022-08-19T02:48:53;11.65;;;3.40;;
49824;SDS011;35714;55.708;37.478;2022-08-19T02:51:23;7.45;;;3.13;;
49824;SDS011;35714;55.708;37.478;2022-08-19T02:53:49;6.40;;;3.13;;
49824;SDS011;35714;55.708;37.478;2022-08-19T02:56:15;8.80;;;3.63;;
49824;SDS011;35714;55.708;37.478;2022-08-19T02:58:40;5.57;;;2.97;;
49824;SDS011;35714;55.708;37.478;2022-08-19T03:01:06;6.43;;;3.15;;
49824;SDS011;35714;55.708;37.478;2022-08-19T03:03:32;9.40;;;3.22;;
49824;SDS011;35714;55.708;37.478;2022-08-19T03:06:13;6.10;;;3.65;;
49824;SDS011;35714;55.708;37.478;2022-08-19T03:08:40;6.43;;;3.53;;
49824;SDS011;35714;55.708;37.478;2022-08-19T03:11:06;7.35;;;3.45;;
49824;SDS011;35714;55.708;37.478;2022-08-19T03:13:31;10.07;;;3.83;;
49824;SDS011;35714;55.708;37.478;2022-08-19T03:15:57;9.55;;;3.65;;
49824;SDS011;35714;55.708;37.478;2022-08-19T03:18:23;8.55;;;3.60;;
49824;SDS011;35714;55.708;37.478;2022-08-19T03:20:49;7.97;;;3.47;;
49824;SDS011;35714;55.708;37.478;2022-08-19T03:23:15;9.05;;;3.75;;
49824;SDS011;35714;55.708;37.478;2022-08-19T03:25:42;9.73;;;3.58;;
49824;SDS011;35714;55.708;37.478;2022-08-19T03:28:11;8.30;;;3.45;;
49824;SDS011;35714;55.708;37.478;2022-08-19T03:30:38;9.05;;;3.17;;
49824;SDS011;35714;55.708;37.478;2022-08-19T03:33:05;9.25;;;3.72;;
49824;SDS011;35714;55.708;37.478;2022-08-19T03:35:31;8.68;;;3.53;;
49824;SDS011;35714;55.708;37.478;2022-08-19T03:37:57;8.43;;;3.60;;
49824;SDS011;35714;55.708;37.478;2022-08-19T03:40:23;6.80;;;3.38;;
49824;SDS011;35714;55.708;37.478;2022-08-19T03:42:48;7.00;;;3.65;;
49824;SDS011;35714;55.708;37.478;2022-08-19T03:45:15;7.32;;;4.07;;
49824;SDS011;35714;55.708;37.478;2022-08-19T03:47:40;9.27;;;3.50;;
49824;SDS011;35714;55.708;37.478;2022-08-19T03:50:06;8.43;;;3.85;;
49824;SDS011;35714;55.708;37.478;2022-08-19T03:52:31;10.57;;;3.97;;
49824;SDS011;35714;55.708;37.478;2022-08-19T03:54:57;7.55;;;4.13;;
49824;SDS011;35714;55.708;37.478;2022-08-19T03:57:22;7.68;;;3.25;;
49824;SDS011;35714;55.708;37.478;2022-08-19T03:59:48;8.32;;;3.70;;
49824;SDS011;35714;55.708;37.478;2022-08-19T04:02:13;7.22;;;3.40;;
49824;SDS011;35714;55.708;37.478;2022-08-19T04:04:40;6.55;;;3.83;;
49824;SDS011;35714;55.708;37.478;2022-08-19T04:07:06;11.73;;;3.60;;
49824;SDS011;35714;55.708;37.478;2022-08-19T04:09:32;8.73;;;3.58;;
49824;SDS011;35714;55.708;37.478;2022-08-19T04:11:58;8.88;;;3.38;;
49824;SDS011;35714;55.708;37.478;2022-08-19T04:14:25;6.40;;;3.58;;
49824;SDS011;35714;55.708;37.478;2022-08-19T04:16:51;7.20;;;3.42;;
49824;SDS011;35714;55.708;37.478;2022-08-19T04:19:17;12.30;;;3.70;;
49824;SDS011;35714;55.708;37.478;2022-08-19T04:21:44;7.75;;;3.20;;
49824;SDS011;35714;55.708;37.478;2022-08-19T04:24:10;9.82;;;3.90;;
49824;SDS011;35714;55.708;37.478;2022-08-19T04:26:36;7.38;;;3.53;;
49824;SDS011;35714;55.708;37.478;2022-08-19T04:29:10;6.13;;;3.13;;
49824;SDS011;35714;55.708;37.478;2022-08-19T04:31:36;13.55;;;3.67;;
49824;SDS011;35714;55.708;37.478;2022-08-19T04:34:03;13.50;;;4.18;;
49824;SDS011;35714;55.708;37.478;2022-08-19T04:36:30;7.28;;;3.40;;
49824;SDS011;35714;55.708;37.478;2022-08-19T04:38:57;7.43;;;2.83;;
49824;SDS011;35714;55.708;37.478;2022-08-19T04:41:23;10.63;;;3.85;;
49824;SDS011;35714;55.708;37.478;2022-08-19T04:44:07;6.97;;;3.63;;
49824;SDS011;35714;55.708;37.478;2022-08-19T04:46:33;7.07;;;3.38;;
49824;SDS011;35714;55.708;37.478;2022-08-19T04:48:59;11.23;;;4.00;;
49824;SDS011;35714;55.708;37.478;2022-08-19T04:51:25;12.10;;;4.00;;
49824;SDS011;35714;55.708;37.478;2022-08-19T04:53:50;8.38;;;3.40;;
49824;SDS011;35714;55.708;37.478;2022-08-19T04:56:18;7.63;;;3.63;;
49824;SDS011;35714;55.708;37.478;2022-08-19T04:58:45;11.13;;;3.63;;
49824;SDS011;35714;55.708;37.478;2022-08-19T05:01:16;8.77;;;3.72;;
49824;SDS011;35714;55.708;37.478;2022-08-19T05:03:42;8.88;;;3.53;;
49824;SDS011;35714;55.708;37.478;2022-08-19T05:06:09;10.48;;;4.22;;
49824;SDS011;35714;55.708;37.478;2022-08-19T05:08:36;11.27;;;4.03;;
49824;SDS011;35714;55.708;37.478;2022-08-19T05:11:07;9.73;;;3.30;;
49824;SDS011;35714;55.708;37.478;2022-08-19T05:13:32;9.35;;;3.85;;
49824;SDS011;35714;55.708;37.478;2022-08-19T05:15:58;15.45;;;4.00;;
49824;SDS011;35714;55.708;37.478;2022-08-19T05:18:23;8.95;;;4.00;;
49824;SDS011;35714;55.708;37.478;2022-08-19T05:21:08;9.27;;;3.83;;
49824;SDS011;35714;55.708;37.478;2022-08-19T05:23:53;9.57;;;3.92;;
49824;SDS011;35714;55.708;37.478;2022-08-19T05:26:18;14.05;;;5.22;;
49824;SDS011;35714;55.708;37.478;2022-08-19T05:28:44;9.02;;;4.32;;
49824;SDS011;35714;55.708;37.478;2022-08-19T05:31:09;10.82;;;6.00;;
49824;SDS011;35714;55.708;37.478;2022-08-19T05:33:35;8.45;;;4.30;;
49824;SDS011;35714;55.708;37.478;2022-08-19T05:36:01;9.55;;;3.72;;
49824;SDS011;35714;55.708;37.478;2022-08-19T05:38:27;10.98;;;4.05;;
49824;SDS011;35714;55.708;37.478;2022-08-19T05:40:53;8.95;;;3.53;;
49824;SDS011;35714;55.708;37.478;2022-08-19T05:43:19;6.18;;;3.30;;
49824;SDS011;35714;55.708;37.478;2022-08-19T05:45:45;7.28;;;3.53;;
49824;SDS011;35714;55.708;37.478;2022-08-19T05:48:10;6.38;;;3.72;;
49824;SDS011;35714;55.708;37.478;2022-08-19T05:50:39;9.15;;;3.75;;
49824;SDS011;35714;55.708;37.478;2022-08-19T05:53:05;8.68;;;3.38;;
49824;SDS011;35714;55.708;37.478;2022-08-19T05:55:31;11.85;;;3.55;;
49824;SDS011;35714;55.708;37.478;2022-08-19T05:57:57;17.08;;;3.78;;
49824;SDS011;35714;55.708;37.478;2022-08-19T06:00:22;6.75;;;3.72;;
49824;SDS011;35714;55.708;37.478;2022-08-19T06:02:48;7.65;;;3.42;;
49824;SDS011;35714;55.708;37.478;2022-08-19T06:05:14;10.02;;;3.42;;
49824;SDS011;35714;55.708;37.478;2022-08-19T06:07:39;12.27;;;3.45;;
49824;SDS011;35714;55.708;37.478;2022-08-19T06:10:07;7.78;;;2.92;;
49824;SDS011;35714;55.708;37.478;2022-08-19T06:12:34;10.98;;;3.13;;
49824;SDS011;35714;55.708;37.478;2022-08-19T06:15:04;8.90;;;2.97;;
49824;SDS011;35714;55.708;37.478;2022-08-19T06:17:30;13.02;;;3.17;;
49824;SDS011;35714;55.708;37.478;2022-08-19T06:19:56;19.20;;;4.10;;
49824;SDS011;35714;55.708;37.478;2022-08-19T06:22:22;5.82;;;3.33;;
49824;SDS011;35714;55.708;37.478;2022-08-19T06:24:47;9.07;;;3.60;;
49824;SDS011;35714;55.708;37.478;2022-08-19T06:27:13;8.43;;;2.88;;
49824;SDS011;35714;55.708;37.478;2022-08-19T06:29:38;10.25;;;2.90;;
49824;SDS011;35714;55.708;37.478;2022-08-19T06:32:04;11.00;;;3.63;;
49824;SDS011;35714;55.708;37.478;2022-08-19T06:34:32;5.97;;;2.88;;
49824;SDS011;35714;55.708;37.478;2022-08-19T06:36:58;9.60;;;3.47;;
49824;SDS011;35714;55.708;37.478;2022-08-19T06:39:27;5.82;;;2.83;;
49824;SDS011;35714;55.708;37.478;2022-08-19T06:41:54;8.60;;;3.55;;
49824;SDS011;35714;55.708;37.478;2022-08-19T06:44:21;8.68;;;4.60;;
49824;SDS011;35714;55.708;37.478;2022-08-19T06:46:47;10.18;;;5.15;;
49824;SDS011;35714;55.708;37.478;2022-08-19T06:49:14;6.32;;;3.75;;
49824;SDS011;35714;55.708;37.478;2022-08-19T06:51:46;10.00;;;3.60;;
49824;SDS011;35714;55.708;37.478;2022-08-19T06:54:13;8.00;;;3.30;;
49824;SDS011;35714;55.708;37.478;2022-08-19T06:56:38;8.75;;;3.55;;
49824;SDS011;35714;55.708;37.478;2022-08-19T06:59:05;9.55;;;3.28;;
49824;SDS011;35714;55.708;37.478;2022-08-19T07:01:35;12.90;;;4.05;;
49824;SDS011;35714;55.708;37.478;2022-08-19T07:04:03;9.32;;;3.03;;
49824;SDS011;35714;55.708;37.478;2022-08-19T07:06:28;11.38;;;3.15;;
49824;SDS011;35714;55.708;37.478;2022-08-19T07:08:56;7.90;;;3.05;;
49824;SDS011;35714;55.708;37.478;2022-08-19T07:11:23;11.63;;;3.35;;
49824;SDS011;35714;55.708;37.478;2022-08-19T07:13:49;11.02;;;6.25;;
49824;SDS011;35714;55.708;37.478;2022-08-19T07:16:15;12.23;;;5.55;;
49824;SDS011;35714;55.708;37.478;2022-08-19T07:18:41;9.10;;;4.40;;
49824;SDS011;35714;55.708;37.478;2022-08-19T07:21:08;8.82;;;3.63;;
49824;SDS011;35714;55.708;37.478;2022-08-19T07:23:35;7.75;;;3.35;;
49824;SDS011;35714;55.708;37.478;2022-08-19T07:26:11;9.50;;;3.17;;
49824;SDS011;35714;55.708;37.478;2022-08-19T07:28:37;10.10;;;3.33;;
49824;SDS011;35714;55.708;37.478;2022-08-19T07:31:06;8.85;;;3.20;;
49824;SDS011;35714;55.708;37.478;2022-08-19T07:33:32;13.23;;;3.60;;
49824;SDS011;35714;55.708;37.478;2022-08-19T07:35:58;7.78;;;3.55;;
49824;SDS011;35714;55.708;37.478;2022-08-19T07:38:24;9.55;;;2.90;;
49824;SDS011;35714;55.708;37.478;2022-08-19T07:40:50;11.20;;;3.47;;
49824;SDS011;35714;55.708;37.478;2022-08-19T07:43:16;6.78;;;2.83;;
49824;SDS011;35714;55.708;37.478;2022-08-19T07:45:42;9.90;;;3.13;;
49824;SDS011;35714;55.708;37.478;2022-08-19T07:48:08;13.32;;;3.97;;
49824;SDS011;35714;55.708;37.478;2022-08-19T07:50:33;5.78;;;3.00;;
49824;SDS011;35714;55.708;37.478;2022-08-19T07:52:59;6.75;;;3.03;;
49824;SDS011;35714;55.708;37.478;2022-08-19T07:55:25;10.75;;;2.72;;
49824;SDS011;35714;55.708;37.478;2022-08-19T07:57:50;10.70;;;3.03;;
49824;SDS011;35714;55.708;37.478;2022-08-19T08:00:17;21.10;;;3.40;;
49824;SDS011;35714;55.708;37.478;2022-08-19T08:02:43;9.27;;;2.90;;
49824;SDS011;35714;55.708;37.478;2022-08-19T08:05:09;9.20;;;3.28;;
49824;SDS011;35714;55.708;37.478;2022-08-19T08:07:53;4.93;;;2.58;;
49824;SDS011;35714;55.708;37.478;2022-08-19T08:10:37;8.27;;;2.57;;
49824;SDS011;35714;55.708;37.478;2022-08-19T08:13:03;13.27;;;3.35;;
49824;SDS011;35714;55.708;37.478;2022-08-19T08:15:30;23.58;;;3.33;;
49824;SDS011;35714;55.708;37.478;2022-08-19T08:17:55;18.42;;;3.00;;
49824;SDS011;35714;55.708;37.478;2022-08-19T08:20:23;8.43;;;2.67;;
49824;SDS011;35714;55.708;37.478;2022-08-19T08:22:48;8.60;;;1.90;;
49824;SDS011;35714;55.708;37.478;2022-08-19T08:25:33;9.05;;;2.55;;
49824;SDS011;35714;55.708;37.478;2022-08-19T08:28:00;11.70;;;2.72;;
49824;SDS011;35714;55.708;37.478;2022-08-19T08:30:27;7.22;;;2.15;;
49824;SDS011;35714;55.708;37.478;2022-08-19T08:32:53;9.35;;;2.88;;
49824;SDS011;35714;55.708;37.478;2022-08-19T08:35:19;8.98;;;3.83;;
49824;SDS011;35714;55.708;37.478;2022-08-19T08:37:46;14.18;;;6.75;;
49824;SDS011;35714;55.708;37.478;2022-08-19T08:42:55;7.15;;;3.47;;
49824;SDS011;35714;55.708;37.478;2022-08-19T08:45:26;9.73;;;3.00;;
49824;SDS011;35714;55.708;37.478;2022-08-19T08:47:52;6.45;;;2.90;;
49824;SDS011;35714;55.708;37.478;2022-08-19T08:50:41;14.50;;;3.70;;
49824;SDS011;35714;55.708;37.478;2022-08-19T08:53:07;8.85;;;2.97;;
49824;SDS011;35714;55.708;37.478;2022-08-19T08:55:34;9.52;;;2.63;;
49824;SDS011;35714;55.708;37.478;2022-08-19T08:58:13;10.40;;;2.53;;
49824;SDS011;35714;55.708;37.478;2022-08-19T09:00:44;7.05;;;2.17;;
49824;SDS011;35714;55.708;37.478;2022-08-19T09:03:20;5.97;;;2.53;;
49824;SDS011;35714;55.708;37.478;2022-08-19T09:05:51;8.60;;;2.28;;
49824;SDS011;35714;55.708;37.478;2022-08-19T09:10:58;10.75;;;2.63;;
49824;SDS011;35714;55.708;37.478;2022-08-19T09:13:31;10.18;;;2.25;;
49824;SDS011;35714;55.708;37.478;2022-08-19T09:16:12;10.82;;;2.40;;
49824;SDS011;35714;55.708;37.478;2022-08-19T09:18:40;9.25;;;2.20;;
49824;SDS011;35714;55.708;37.478;2022-08-19T09:21:06;13.02;;;2.40;;
49824;SDS011;35714;55.708;37.478;2022-08-19T09:23:34;6.22;;;2.20;;
49824;SDS011;35714;55.708;37.478;2022-08-19T09:25:59;8.98;;;2.40;;
49824;SDS011;35714;55.708;37.478;2022-08-19T09:28:25;4.80;;;2.10;;
49824;SDS011;35714;55.708;37.478;2022-08-19T09:30:51;9.52;;;2.65;;
49824;SDS011;35714;55.708;37.478;2022-08-19T09:33:16;6.88;;;2.38;;
49824;SDS011;35714;55.708;37.478;2022-08-19T09:35:42;7.90;;;2.80;;
49824;SDS011;35714;55.708;37.478;2022-08-19T09:38:08;5.55;;;2.30;;
49824;SDS011;35714;55.708;37.478;2022-08-19T09:40:33;7.50;;;3.10;;
49824;SDS011;35714;55.708;37.478;2022-08-19T09:42:59;6.25;;;4.28;;
49824;SDS011;35714;55.708;37.478;2022-08-19T09:45:28;7.72;;;2.58;;
49824;SDS011;35714;55.708;37.478;2022-08-19T09:47:53;4.07;;;2.15;;
49824;SDS011;35714;55.708;37.478;2022-08-19T09:50:19;9.05;;;2.38;;
49824;SDS011;35714;55.708;37.478;2022-08-19T09:52:45;8.93;;;2.95;;
49824;SDS011;35714;55.708;37.478;2022-08-19T09:55:11;16.27;;;2.60;;
49824;SDS011;35714;55.708;37.478;2022-08-19T09:57:36;5.00;;;1.88;;
49824;SDS011;35714;55.708;37.478;2022-08-19T10:00:03;10.10;;;2.20;;
49824;SDS011;35714;55.708;37.478;2022-08-19T10:02:33;6.60;;;2.00;;
49824;SDS011;35714;55.708;37.478;2022-08-19T10:04:59;7.40;;;2.20;;
49824;SDS011;35714;55.708;37.478;2022-08-19T10:07:43;5.13;;;2.10;;
49824;SDS011;35714;55.708;37.478;2022-08-19T10:10:08;9.35;;;1.95;;
49824;SDS011;35714;55.708;37.478;2022-08-19T10:12:36;8.93;;;1.88;;
49824;SDS011;35714;55.708;37.478;2022-08-19T10:15:02;4.93;;;1.40;;
49824;SDS011;35714;55.708;37.478;2022-08-19T10:17:28;6.55;;;1.67;;
49824;SDS011;35714;55.708;37.478;2022-08-19T10:19:54;7.40;;;1.85;;
49824;SDS011;35714;55.708;37.478;2022-08-19T10:22:20;5.25;;;1.70;;
49824;SDS011;35714;55.708;37.478;2022-08-19T10:24:45;9.68;;;2.10;;
49824;SDS011;35714;55.708;37.478;2022-08-19T10:27:11;5.38;;;1.80;;
49824;SDS011;35714;55.708;37.478;2022-08-19T10:29:38;4.65;;;1.67;;
49824;SDS011;35714;55.708;37.478;2022-08-19T10:32:05;4.85;;;1.95;;
49824;SDS011;35714;55.708;37.478;2022-08-19T10:34:32;25.75;;;3.92;;
49824;SDS011;35714;55.708;37.478;2022-08-19T10:36:58;10.25;;;1.77;;
49824;SDS011;35714;55.708;37.478;2022-08-19T10:39:25;8.80;;;1.85;;
49824;SDS011;35714;55.708;37.478;2022-08-19T10:41:53;7.30;;;1.52;;
49824;SDS011;35714;55.708;37.478;2022-08-19T10:44:20;5.65;;;1.75;;
49824;SDS011;35714;55.708;37.478;2022-08-19T10:46:46;8.30;;;1.83;;
49824;SDS011;35714;55.708;37.478;2022-08-19T10:49:12;8.38;;;1.73;;
49824;SDS011;35714;55.708;37.478;2022-08-19T10:51:38;10.88;;;1.95;;
49824;SDS011;35714;55.708;37.478;2022-08-19T10:54:23;8.40;;;1.67;;
49824;SDS011;35714;55.708;37.478;2022-08-19T10:57:09;10.77;;;2.22;;
49824;SDS011;35714;55.708;37.478;2022-08-19T10:59:34;6.35;;;1.80;;
49824;SDS011;35714;55.708;37.478;2022-08-19T11:02:01;5.80;;;1.60;;
49824;SDS011;35714;55.708;37.478;2022-08-19T11:04:27;5.32;;;1.45;;
49824;SDS011;35714;55.708;37.478;2022-08-19T11:06:53;6.03;;;1.98;;
49824;SDS011;35714;55.708;37.478;2022-08-19T11:09:21;9.55;;;1.63;;
49824;SDS011;35714;55.708;37.478;2022-08-19T11:11:49;4.10;;;1.50;;
49824;SDS011;35714;55.708;37.478;2022-08-19T11:14:16;7.15;;;1.80;;
49824;SDS011;35714;55.708;37.478;2022-08-19T11:16:43;5.18;;;1.75;;
49824;SDS011;35714;55.708;37.478;2022-08-19T11:19:11;5.35;;;1.70;;
49824;SDS011;35714;55.708;37.478;2022-08-19T11:21:41;7.05;;;1.42;;
49824;SDS011;35714;55.708;37.478;2022-08-19T11:24:11;8.93;;;1.58;;
49824;SDS011;35714;55.708;37.478;2022-08-19T11:26:38;6.25;;;1.52;;
49824;SDS011;35714;55.708;37.478;2022-08-19T11:29:04;5.65;;;2.80;;
49824;SDS011;35714;55.708;37.478;2022-08-19T11:31:32;5.63;;;2.00;;
49824;SDS011;35714;55.708;37.478;2022-08-19T11:33:58;4.55;;;1.45;;
49824;SDS011;35714;55.708;37.478;2022-08-19T11:36:24;7.05;;;1.77;;
49824;SDS011;35714;55.708;37.478;2022-08-19T11:38:50;9.48;;;1.70;;
49824;SDS011;35714;55.708;37.478;2022-08-19T11:41:17;5.82;;;2.03;;
49824;SDS011;35714;55.708;37.478;2022-08-19T11:43:43;5.40;;;1.73;;
49824;SDS011;35714;55.708;37.478;2022-08-19T11:46:09;5.10;;;1.55;;
49824;SDS011;35714;55.708;37.478;2022-08-19T11:48:36;4.38;;;1.23;;
49824;SDS011;35714;55.708;37.478;2022-08-19T11:51:06;9.90;;;1.98;;
49824;SDS011;35714;55.708;37.478;2022-08-19T11:53:32;9.18;;;2.45;;
49824;SDS011;35714;55.708;37.478;2022-08-19T11:55:58;8.38;;;2.00;;
49824;SDS011;35714;55.708;37.478;2022-08-19T11:58:23;5.55;;;1.60;;
49824;SDS011;35714;55.708;37.478;2022-08-19T12:00:50;3.20;;;1.45;;
49824;SDS011;35714;55.708;37.478;2022-08-19T12:03:16;6.70;;;1.90;;
49824;SDS011;35714;55.708;37.478;2022-08-19T12:05:42;7.90;;;4.30;;
49824;SDS011;35714;55.708;37.478;2022-08-19T12:08:08;6.28;;;3.22;;
49824;SDS011;35714;55.708;37.478;2022-08-19T12:10:34;9.10;;;2.78;;
49824;SDS011;35714;55.708;37.478;2022-08-19T12:13:00;4.75;;;2.00;;
49824;SDS011;35714;55.708;37.478;2022-08-19T12:15:26;9.98;;;5.03;;
49824;SDS011;35714;55.708;37.478;2022-08-19T12:17:53;7.97;;;2.88;;
49824;SDS011;35714;55.708;37.478;2022-08-19T12:20:22;5.57;;;2.22;;
49824;SDS011;35714;55.708;37.478;2022-08-19T12:22:48;3.85;;;1.60;;
49824;SDS011;35714;55.708;37.478;2022-08-19T12:25:13;6.40;;;1.80;;
49824;SDS011;35714;55.708;37.478;2022-08-19T12:27:39;5.10;;;1.98;;
49824;SDS011;35714;55.708;37.478;2022-08-19T12:30:05;5.03;;;2.30;;
49824;SDS011;35714;55.708;37.478;2022-08-19T12:32:31;5.13;;;1.85;;
49824;SDS011;35714;55.708;37.478;2022-08-19T12:34:57;5.68;;;1.98;;
49824;SDS011;35714;55.708;37.478;2022-08-19T12:37:22;6.28;;;1.80;;
49824;SDS011;35714;55.708;37.478;2022-08-19T12:39:48;6.43;;;1.92;;
49824;SDS011;35714;55.708;37.478;2022-08-19T12:42:14;5.95;;;1.92;;
49824;SDS011;35714;55.708;37.478;2022-08-19T12:44:40;7.55;;;1.80;;
49824;SDS011;35714;55.708;37.478;2022-08-19T12:47:06;6.45;;;2.00;;
49824;SDS011;35714;55.708;37.478;2022-08-19T12:49:32;5.50;;;1.52;;
49824;SDS011;35714;55.708;37.478;2022-08-19T12:52:02;8.70;;;2.05;;
49824;SDS011;35714;55.708;37.478;2022-08-19T12:54:28;6.15;;;1.88;;
49824;SDS011;35714;55.708;37.478;2022-08-19T12:56:54;7.78;;;2.28;;
49824;SDS011;35714;55.708;37.478;2022-08-19T12:59:20;10.27;;;2.03;;
49824;SDS011;35714;55.708;37.478;2022-08-19T13:01:46;9.60;;;1.92;;
49824;SDS011;35714;55.708;37.478;2022-08-19T13:04:11;10.27;;;2.13;;
49824;SDS011;35714;55.708;37.478;2022-08-19T13:06:37;7.90;;;2.00;;
49824;SDS011;35714;55.708;37.478;2022-08-19T13:09:03;6.93;;;2.17;;
49824;SDS011;35714;55.708;37.478;2022-08-19T13:11:29;13.73;;;2.38;;
49824;SDS011;35714;55.708;37.478;2022-08-19T13:13:57;13.20;;;3.47;;
49824;SDS011;35714;55.708;37.478;2022-08-19T13:16:23;9.75;;;3.38;;
49824;SDS011;35714;55.708;37.478;2022-08-19T13:18:49;10.85;;;4.45;;
49824;SDS011;35714;55.708;37.478;2022-08-19T13:21:17;6.95;;;3.22;;
49824;SDS011;35714;55.708;37.478;2022-08-19T13:23:45;13.00;;;2.95;;
49824;SDS011;35714;55.708;37.478;2022-08-19T13:26:11;9.95;;;3.20;;
49824;SDS011;35714;55.708;37.478;2022-08-19T13:28:37;6.63;;;3.22;;
49824;SDS011;35714;55.708;37.478;2022-08-19T13:31:22;10.02;;;3.30;;
49824;SDS011;35714;55.708;37.478;2022-08-19T13:34:06;6.43;;;3.00;;
49824;SDS011;35714;55.708;37.478;2022-08-19T13:36:33;13.85;;;4.65;;
49824;SDS011;35714;55.708;37.478;2022-08-19T13:38:58;13.48;;;4.97;;
49824;SDS011;35714;55.708;37.478;2022-08-19T13:41:24;13.80;;;3.97;;
49824;SDS011;35714;55.708;37.478;2022-08-19T13:43:50;8.30;;;3.60;;
49824;SDS011;35714;55.708;37.478;2022-08-19T13:46:15;11.73;;;4.10;;
49824;SDS011;35714;55.708;37.478;2022-08-19T13:48:41;9.05;;;4.35;;
49824;SDS011;35714;55.708;37.478;2022-08-19T13:51:07;10.32;;;4.55;;
49824;SDS011;35714;55.708;37.478;2022-08-19T13:53:35;8.75;;;3.55;;
49824;SDS011;35714;55.708;37.478;2022-08-19T13:56:06;6.35;;;2.60;;
49824;SDS011;35714;55.708;37.478;2022-08-19T13:58:32;6.80;;;2.60;;
49824;SDS011;35714;55.708;37.478;2022-08-19T14:00:58;10.05;;;2.70;;
49824;SDS011;35714;55.708;37.478;2022-08-19T14:03:24;10.52;;;2.53;;
49824;SDS011;35714;55.708;37.478;2022-08-19T14:05:50;18.58;;;2.47;;
49824;SDS011;35714;55.708;37.478;2022-08-19T14:08:16;5.53;;;2.60;;
49824;SDS011;35714;55.708;37.478;2022-08-19T14:10:42;9.70;;;2.65;;
49824;SDS011;35714;55.708;37.478;2022-08-19T14:13:09;13.63;;;2.78;;
49824;SDS011;35714;55.708;37.478;2022-08-19T14:15:35;7.07;;;3.45;;
49824;SDS011;35714;55.708;37.478;2022-08-19T14:18:02;11.20;;;5.90;;
49824;SDS011;35714;55.708;37.478;2022-08-19T14:20:29;15.88;;;5.20;;
49824;SDS011;35714;55.708;37.478;2022-08-19T14:22:54;11.45;;;6.43;;
49824;SDS011;35714;55.708;37.478;2022-08-19T14:25:25;10.65;;;6.25;;
49824;SDS011;35714;55.708;37.478;2022-08-19T14:27:50;12.60;;;6.25;;
49824;SDS011;35714;55.708;37.478;2022-08-19T14:30:17;12.32;;;6.15;;
49824;SDS011;35714;55.708;37.478;2022-08-19T14:32:43;12.35;;;6.30;;
49824;SDS011;35714;55.708;37.478;2022-08-19T14:35:10;10.07;;;5.88;;
49824;SDS011;35714;55.708;37.478;2022-08-19T14:37:37;7.75;;;5.18;;